RJTR(METAR)
08/23 00:58
METAR RJTR 221558Z AUTO 01003KT 10SM BKN150 27/24 A2987 RMK AO2
SLP113 T02670238 $=
戻る
トップページへ戻る
IMOC Co,.Ltd.